Time;durP1;ratioP1;P1;durP2;ratioP2;P2;SDS_P1;SDS_P2;PMS_P1;PMS_P2;Temp;Humidity;BMP_temperature;BMP_pressure;BME280_temperature;BME280_humidity;BME280_pressure;Samples;Min_cycle;Max_cycle;Signal;HPM_P1;HPM_P2
2022/12/07 00:02:10;;;;;;;;;;;;;;;;;;5066838;28;19920;-78
2022/12/07 00:04:35;;;;;;;;;;;;;;;;;;5066993;28;20012;-78
2022/12/07 00:07:02;;;;;;;;;;;;;;;;;;5065959;28;19915;-78
2022/12/07 00:09:28;;;;;;;;;;;;;;;;;;5067419;28;19961;-78
2022/12/07 00:11:54;;;;;;;;;;;;;;;;;;5063867;28;19908;-79
2022/12/07 00:14:20;;;;;;;;;;;;;;;;;;5060892;28;19915;-78
2022/12/07 00:16:46;;;;;;;;;;;;;;;;;;5065463;28;19908;-78
2022/12/07 00:19:11;;;;;;;;;;;;;;;;;;5061971;28;19913;-79
2022/12/07 00:21:37;;;;;;;;;;;;;;;;;;5076731;28;19909;-80
2022/12/07 00:24:03;;;;;;;;;;;;;;;;;;5065719;28;19915;-80
2022/12/07 00:26:29;;;;;;;;;;;;;;;;;;5065446;28;19983;-80
2022/12/07 00:28:55;;;;;;;;;;;;;;;;;;5064518;28;19913;-79
2022/12/07 00:31:21;;;;;;;;;;;;;;;;;;5065358;28;19912;-79
2022/12/07 00:33:47;;;;;;;;;;;;;;;;;;5067875;28;19909;-80
2022/12/07 00:36:12;;;;;;;;;;;;;;;;;;5065519;28;19977;-79
2022/12/07 00:38:38;;;;;;;;;;;;;;;;;;5067527;28;20450;-80
2022/12/07 00:41:04;;;;;;;;;;;;;;;;;;5072566;28;19909;-80
2022/12/07 00:43:30;;;;;;;;;;;;;;;;;;5065954;28;19912;-80
2022/12/07 00:45:56;;;;;;;;;;;;;;;;;;5076225;28;19922;-80
2022/12/07 00:48:22;;;;;;;;;;;;;;;;;;5069554;28;19916;-80
2022/12/07 00:50:47;;;;;;;;;;;;;;;;;;5068133;28;20449;-80
2022/12/07 00:53:13;;;;;;;;;;;;;;;;;;5069466;28;20371;-80
2022/12/07 00:55:39;;;;;;;;;;;;;;;;;;5070627;28;20357;-80
2022/12/07 00:58:05;;;;;;;;;;;;;;;;;;5068595;28;19909;-81
2022/12/07 01:00:32;;;;;;;;;;;;;;;;;;5084598;28;19928;-80
2022/12/07 01:02:58;;;;;;;;;;;;;;;;;;5068963;28;20117;-80
2022/12/07 01:05:24;;;;;;;;;;;;;;;;;;5061930;28;20116;-78
2022/12/07 01:07:50;;;;;;;;;;;;;;;;;;5071358;28;20389;-79
2022/12/07 01:10:16;;;;;;;;;;;;;;;;;;5069936;28;20347;-78
2022/12/07 01:12:41;;;;;;;;;;;;;;;;;;5070408;28;19978;-78
2022/12/07 01:15:07;;;;;;;;;;;;;;;;;;5068651;28;19916;-78
2022/12/07 01:17:33;;;;;;;;;;;;;;;;;;5060795;28;19912;-78
2022/12/07 01:20:02;;;;;;;;;;;;;;;;;;5069688;28;19912;-78
2022/12/07 01:22:28;;;;;;;;;;;;;;;;;;5062785;28;19966;-79
2022/12/07 01:24:54;;;;;;;;;;;;;;;;;;5063119;28;19917;-79
2022/12/07 01:27:22;;;;;;;;;;;;;;;;;;5067712;28;19915;-79
2022/12/07 01:29:48;;;;;;;;;;;;;;;;;;5069590;28;19917;-78
2022/12/07 01:32:14;;;;;;;;;;;;;;;;;;5067056;28;19908;-79
2022/12/07 01:34:40;;;;;;;;;;;;;;;;;;5069861;28;19909;-79
2022/12/07 01:37:06;;;;;;;;;;;;;;;;;;5066050;28;19908;-79
2022/12/07 01:39:31;;;;;;;;;;;;;;;;;;5064808;28;19909;-81
2022/12/07 01:41:57;;;;;;;;;;;;;;;;;;5060106;28;20046;-80
2022/12/07 01:44:23;;;;;;;;;;;;;;;;;;5068966;28;19916;-80
2022/12/07 01:46:49;;;;;;;;;;;;;;;;;;5061783;28;19919;-80
2022/12/07 01:49:15;;;;;;;;;;;;;;;;;;5059516;28;20002;-79
2022/12/07 01:51:41;;;;;;;;;;;;;;;;;;5084250;28;19998;-79
2022/12/07 01:54:07;;;;;;;;;;;;;;;;;;5068639;28;19915;-80
2022/12/07 01:56:33;;;;;;;;;;;;;;;;;;5062340;28;19908;-80
2022/12/07 01:58:58;;;;;;;;;;;;;;;;;;5065106;28;19912;-80
2022/12/07 02:01:24;;;;;;;;;;;;;;;;;;5060316;28;19908;-80
2022/12/07 02:03:50;;;;;;;;;;;;;;;;;;5063866;28;20008;-80
2022/12/07 02:06:16;;;;;;;;;;;;;;;;;;5067903;28;19913;-80
2022/12/07 02:08:42;;;;;;;;;;;;;;;;;;5068997;28;19909;-80
2022/12/07 02:11:08;;;;;;;;;;;;;;;;;;5067778;28;20337;-79
2022/12/07 02:13:34;;;;;;;;;;;;;;;;;;5075373;28;19912;-80
2022/12/07 02:16:00;;;;;;;;;;;;;;;;;;5068385;28;19916;-80
2022/12/07 02:18:26;;;;;;;;;;;;;;;;;;5063724;28;19954;-80
2022/12/07 02:20:51;;;;;;;;;;;;;;;;;;5058068;28;20359;-80
2022/12/07 02:23:17;;;;;;;;;;;;;;;;;;5070673;28;20004;-81
2022/12/07 02:25:43;;;;;;;;;;;;;;;;;;5070269;28;19913;-81
2022/12/07 02:28:09;;;;;;;;;;;;;;;;;;5065466;28;19913;-80
2022/12/07 02:30:35;;;;;;;;;;;;;;;;;;5063608;28;19986;-80
2022/12/07 02:33:01;;;;;;;;;;;;;;;;;;5065939;28;19912;-79
2022/12/07 02:35:26;;;;;;;;;;;;;;;;;;5066417;28;19908;-79
2022/12/07 02:37:52;;;;;;;;;;;;;;;;;;5066635;28;19917;-79
2022/12/07 02:40:18;;;;;;;;;;;;;;;;;;5064183;28;19908;-79
2022/12/07 02:42:44;;;;;;;;;;;;;;;;;;5064922;28;19938;-79
2022/12/07 02:45:10;;;;;;;;;;;;;;;;;;5063456;28;20353;-79
2022/12/07 02:47:36;;;;;;;;;;;;;;;;;;5060410;28;19916;-79
2022/12/07 02:50:02;;;;;;;;;;;;;;;;;;5061881;28;19916;-79
2022/12/07 02:52:28;;;;;;;;;;;;;;;;;;5064769;28;20282;-79
2022/12/07 02:54:53;;;;;;;;;;;;;;;;;;5067599;28;19917;-79
2022/12/07 02:57:19;;;;;;;;;;;;;;;;;;5063507;28;20279;-79
2022/12/07 02:59:47;;;;;;;;;;;;;;;;;;5067188;28;19908;-80
2022/12/07 03:02:13;;;;;;;;;;;;;;;;;;5070352;28;19908;-79
2022/12/07 03:04:39;;;;;;;;;;;;;;;;;;5069171;28;19909;-79
2022/12/07 03:07:05;;;;;;;;;;;;;;;;;;5062805;28;20016;-79
2022/12/07 03:09:30;;;;;;;;;;;;;;;;;;5066537;28;19908;-79
2022/12/07 03:11:56;;;;;;;;;;;;;;;;;;5071683;28;20381;-79
2022/12/07 03:14:22;;;;;;;;;;;;;;;;;;5071737;28;20120;-79
2022/12/07 03:16:48;;;;;;;;;;;;;;;;;;5066120;28;19912;-80
2022/12/07 03:19:14;;;;;;;;;;;;;;;;;;5067792;28;20167;-79
2022/12/07 03:21:40;;;;;;;;;;;;;;;;;;5065677;28;19915;-79
2022/12/07 03:24:05;;;;;;;;;;;;;;;;;;5062272;28;19966;-80
2022/12/07 03:26:31;;;;;;;;;;;;;;;;;;5063411;28;19920;-79
2022/12/07 03:28:57;;;;;;;;;;;;;;;;;;5065460;28;19967;-80
2022/12/07 03:31:23;;;;;;;;;;;;;;;;;;5064456;28;19908;-79
2022/12/07 03:33:49;;;;;;;;;;;;;;;;;;5067908;28;19913;-80
2022/12/07 03:36:15;;;;;;;;;;;;;;;;;;5058936;28;19908;-80
2022/12/07 03:38:40;;;;;;;;;;;;;;;;;;5049530;28;19905;-80
2022/12/07 03:41:07;;;;;;;;;;;;;;;;;;5057771;28;19952;-80
2022/12/07 03:43:33;;;;;;;;;;;;;;;;;;5069247;28;19912;-80
2022/12/07 03:45:59;;;;;;;;;;;;;;;;;;5070413;28;20310;-80
2022/12/07 03:48:24;;;;;;;;;;;;;;;;;;5064829;28;19915;-80
2022/12/07 03:50:50;;;;;;;;;;;;;;;;;;5064866;28;19924;-80
2022/12/07 03:53:16;;;;;;;;;;;;;;;;;;5064868;28;19915;-80
2022/12/07 03:55:42;;;;;;;;;;;;;;;;;;5063244;28;19908;-81
2022/12/07 03:58:08;;;;;;;;;;;;;;;;;;5065639;28;20060;-80
2022/12/07 04:00:34;;;;;;;;;;;;;;;;;;5065210;28;19908;-80
2022/12/07 04:02:59;;;;;;;;;;;;;;;;;;5065766;28;19913;-79
2022/12/07 04:05:25;;;;;;;;;;;;;;;;;;5067014;28;19921;-79
2022/12/07 04:07:51;;;;;;;;;;;;;;;;;;5064379;28;19908;-79
2022/12/07 04:10:17;;;;;;;;;;;;;;;;;;5062510;28;19918;-79
2022/12/07 04:12:43;;;;;;;;;;;;;;;;;;5061597;28;19913;-80
2022/12/07 04:15:09;;;;;;;;;;;;;;;;;;5067502;28;19967;-81
2022/12/07 04:17:35;;;;;;;;;;;;;;;;;;5068744;28;19912;-81
2022/12/07 04:20:00;;;;;;;;;;;;;;;;;;5066533;28;19950;-80
2022/12/07 04:22:26;;;;;;;;;;;;;;;;;;5061335;28;19916;-79
2022/12/07 04:24:52;;;;;;;;;;;;;;;;;;5052756;28;19912;-78
2022/12/07 04:27:18;;;;;;;;;;;;;;;;;;5064291;28;20294;-79
2022/12/07 04:29:44;;;;;;;;;;;;;;;;;;5053852;28;19908;-78
2022/12/07 04:32:10;;;;;;;;;;;;;;;;;;5065455;28;19922;-79
2022/12/07 04:34:35;;;;;;;;;;;;;;;;;;5058982;28;19913;-76
2022/12/07 04:37:03;;;;;;;;;;;;;;;;;;5056992;28;20647;-78
2022/12/07 04:39:32;;;;;;;;;;;;;;;;;;5064794;28;19967;-79
2022/12/07 04:41:58;;;;;;;;;;;;;;;;;;5064263;28;19912;-79
2022/12/07 04:44:24;;;;;;;;;;;;;;;;;;5068047;28;19904;-79
2022/12/07 04:46:50;;;;;;;;;;;;;;;;;;5064402;28;19922;-79
2022/12/07 04:49:16;;;;;;;;;;;;;;;;;;5069140;28;19908;-79
2022/12/07 04:51:41;;;;;;;;;;;;;;;;;;5068578;28;19942;-79
2022/12/07 04:54:07;;;;;;;;;;;;;;;;;;5069443;28;19952;-79
2022/12/07 04:56:34;;;;;;;;;;;;;;;;;;5071902;28;20797;-79
2022/12/07 04:59:00;;;;;;;;;;;;;;;;;;5066635;28;19915;-79
2022/12/07 05:01:29;;;;;;;;;;;;;;;;;;5066877;28;19908;-79
2022/12/07 05:03:55;;;;;;;;;;;;;;;;;;5066718;28;19909;-79
2022/12/07 05:06:21;;;;;;;;;;;;;;;;;;5071249;28;19935;-81
2022/12/07 05:08:47;;;;;;;;;;;;;;;;;;5071292;28;19909;-78
2022/12/07 05:13:57;;;;;;;;;;;;;;;;;;5054609;28;19919;-79
2022/12/07 05:16:23;;;;;;;;;;;;;;;;;;5062101;28;19909;-79
2022/12/07 05:18:49;;;;;;;;;;;;;;;;;;5071124;28;19951;-78
2022/12/07 05:21:15;;;;;;;;;;;;;;;;;;5067881;28;19909;-78
2022/12/07 05:23:41;;;;;;;;;;;;;;;;;;5076081;28;19908;-79
2022/12/07 05:26:07;;;;;;;;;;;;;;;;;;5063292;28;19913;-79
2022/12/07 05:28:32;;;;;;;;;;;;;;;;;;5073090;28;19904;-79
2022/12/07 05:30:58;;;;;;;;;;;;;;;;;;5070266;28;19908;-78
2022/12/07 05:33:24;;;;;;;;;;;;;;;;;;5068719;28;19908;-78
2022/12/07 05:35:50;;;;;;;;;;;;;;;;;;5069959;28;19934;-79
2022/12/07 05:38:16;;;;;;;;;;;;;;;;;;5070044;28;19908;-79
2022/12/07 05:40:41;;;;;;;;;;;;;;;;;;5077325;28;19908;-80
2022/12/07 05:43:07;;;;;;;;;;;;;;;;;;5060240;28;19962;-78
2022/12/07 05:45:33;;;;;;;;;;;;;;;;;;5065590;28;19943;-78
2022/12/07 05:47:59;;;;;;;;;;;;;;;;;;5067995;28;19912;-79
2022/12/07 05:50:25;;;;;;;;;;;;;;;;;;5070076;28;19923;-79
2022/12/07 05:52:51;;;;;;;;;;;;;;;;;;5068592;28;20492;-79
2022/12/07 05:55:17;;;;;;;;;;;;;;;;;;5064454;28;20363;-79
2022/12/07 05:59:22;;;;;;;;;;;;;;;;;;5064433;28;19908;-78
2022/12/07 06:00:28;;;;;;;;;;;;;;;;;;5054518;28;19935;-79
2022/12/07 06:02:54;;;;;;;;;;;;;;;;;;5066953;28;20363;-79
2022/12/07 06:05:20;;;;;;;;;;;;;;;;;;5068703;28;21359;-79
2022/12/07 06:07:46;;;;;;;;;;;;;;;;;;5070642;28;20149;-78
2022/12/07 06:10:12;;;;;;;;;;;;;;;;;;5069497;28;19916;-78
2022/12/07 06:12:39;;;;;;;;;;;;;;;;;;5082843;28;19914;-78
2022/12/07 06:15:05;;;;;;;;;;;;;;;;;;5064937;28;20579;-78
2022/12/07 06:17:31;;;;;;;;;;;;;;;;;;5068459;28;19909;-78
2022/12/07 06:19:56;;;;;;;;;;;;;;;;;;5069721;28;20266;-77
2022/12/07 06:22:22;;;;;;;;;;;;;;;;;;5069875;28;20039;-78
2022/12/07 06:24:48;;;;;;;;;;;;;;;;;;5055327;28;20007;-78
2022/12/07 06:27:14;;;;;;;;;;;;;;;;;;5070886;28;19973;-77
2022/12/07 06:29:40;;;;;;;;;;;;;;;;;;5082503;28;20020;-77
2022/12/07 06:32:06;;;;;;;;;;;;;;;;;;5059785;28;20344;-77
2022/12/07 06:34:32;;;;;;;;;;;;;;;;;;5060141;28;20129;-77
2022/12/07 06:36:57;;;;;;;;;;;;;;;;;;5061293;28;20282;-77
2022/12/07 06:39:23;;;;;;;;;;;;;;;;;;5070100;28;19950;-78
2022/12/07 06:41:49;;;;;;;;;;;;;;;;;;5064327;28;19912;-78
2022/12/07 06:44:15;;;;;;;;;;;;;;;;;;5065791;28;20359;-78
2022/12/07 06:46:41;;;;;;;;;;;;;;;;;;5063434;28;19917;-78
2022/12/07 06:49:07;;;;;;;;;;;;;;;;;;5061917;28;19920;-78
2022/12/07 06:51:35;;;;;;;;;;;;;;;;;;5069885;28;19981;-78
2022/12/07 06:54:00;;;;;;;;;;;;;;;;;;5067317;28;19916;-78
2022/12/07 06:56:26;;;;;;;;;;;;;;;;;;5068225;28;19908;-78
2022/12/07 06:58:52;;;;;;;;;;;;;;;;;;5068656;28;19915;-78
2022/12/07 07:01:18;;;;;;;;;;;;;;;;;;5070145;28;19912;-78
2022/12/07 07:03:44;;;;;;;;;;;;;;;;;;5081057;28;20397;-78
2022/12/07 07:06:10;;;;;;;;;;;;;;;;;;5053550;28;19951;-78
2022/12/07 07:08:36;;;;;;;;;;;;;;;;;;5066575;28;19905;-77
2022/12/07 07:11:01;;;;;;;;;;;;;;;;;;5059952;28;19909;-79
2022/12/07 07:13:27;;;;;;;;;;;;;;;;;;5061615;28;20371;-79
2022/12/07 07:15:53;;;;;;;;;;;;;;;;;;5067273;28;20384;-79
2022/12/07 07:18:19;;;;;;;;;;;;;;;;;;5059730;28;19912;-79
2022/12/07 07:20:45;;;;;;;;;;;;;;;;;;5075007;28;20032;-78
2022/12/07 07:23:11;;;;;;;;;;;;;;;;;;5064219;28;19908;-78
2022/12/07 07:25:36;;;;;;;;;;;;;;;;;;5065923;28;19958;-78
2022/12/07 07:28:02;;;;;;;;;;;;;;;;;;5072963;28;19962;-78
2022/12/07 07:30:28;;;;;;;;;;;;;;;;;;5067021;28;20019;-78
2022/12/07 07:32:54;;;;;;;;;;;;;;;;;;5065649;28;19936;-78
2022/12/07 07:35:20;;;;;;;;;;;;;;;;;;5055423;28;19911;-78
2022/12/07 07:37:46;;;;;;;;;;;;;;;;;;5071458;28;19916;-78
2022/12/07 07:40:12;;;;;;;;;;;;;;;;;;5076160;28;19908;-78
2022/12/07 07:42:37;;;;;;;;;;;;;;;;;;5061078;28;19912;-78
2022/12/07 07:45:06;;;;;;;;;;;;;;;;;;5062569;28;19912;-78
2022/12/07 07:47:32;;;;;;;;;;;;;;;;;;5061946;28;19915;-80
2022/12/07 07:49:58;;;;;;;;;;;;;;;;;;5068509;28;19995;-78
2022/12/07 07:52:24;;;;;;;;;;;;;;;;;;5068391;28;19915;-79
2022/12/07 07:54:50;;;;;;;;;;;;;;;;;;5072155;28;19919;-78
2022/12/07 07:57:16;;;;;;;;;;;;;;;;;;5061524;28;19909;-79
2022/12/07 07:59:41;;;;;;;;;;;;;;;;;;5066725;28;19993;-79
2022/12/07 08:02:07;;;;;;;;;;;;;;;;;;5056983;28;19919;-79
2022/12/07 08:04:33;;;;;;;;;;;;;;;;;;5063302;28;19908;-79
2022/12/07 08:06:59;;;;;;;;;;;;;;;;;;5057799;28;19911;-79
2022/12/07 08:09:25;;;;;;;;;;;;;;;;;;5063006;28;19967;-78
2022/12/07 08:11:50;;;;;;;;;;;;;;;;;;5066624;28;19908;-78
2022/12/07 08:14:16;;;;;;;;;;;;;;;;;;5066056;28;19918;-78
2022/12/07 08:16:42;;;;;;;;;;;;;;;;;;5065745;28;20287;-78
2022/12/07 08:19:08;;;;;;;;;;;;;;;;;;5057475;28;21291;-77
2022/12/07 08:21:34;;;;;;;;;;;;;;;;;;5065067;28;19916;-78
2022/12/07 08:24:00;;;;;;;;;;;;;;;;;;5066766;28;19974;-77
2022/12/07 08:26:26;;;;;;;;;;;;;;;;;;5063395;28;19912;-83
2022/12/07 08:28:51;;;;;;;;;;;;;;;;;;5059155;28;20365;-83
2022/12/07 08:31:17;;;;;;;;;;;;;;;;;;5062444;28;20380;-84
2022/12/07 08:33:43;;;;;;;;;;;;;;;;;;5061769;28;19908;-77
2022/12/07 08:36:09;;;;;;;;;;;;;;;;;;5058196;28;19982;-76
2022/12/07 08:38:35;;;;;;;;;;;;;;;;;;5053665;28;19916;-78
2022/12/07 08:41:01;;;;;;;;;;;;;;;;;;5061068;28;19916;-78
2022/12/07 08:43:27;;;;;;;;;;;;;;;;;;5066462;28;19913;-79
2022/12/07 08:45:53;;;;;;;;;;;;;;;;;;5062141;28;19921;-78
2022/12/07 08:48:21;;;;;;;;;;;;;;;;;;5056257;28;19916;-77
2022/12/07 08:50:47;;;;;;;;;;;;;;;;;;5067269;28;19923;-77
2022/12/07 08:53:13;;;;;;;;;;;;;;;;;;5066229;28;19912;-76
2022/12/07 08:55:39;;;;;;;;;;;;;;;;;;5061151;28;19904;-78
2022/12/07 08:58:05;;;;;;;;;;;;;;;;;;5069238;28;20037;-77
2022/12/07 09:00:31;;;;;;;;;;;;;;;;;;5070144;28;20375;-78
2022/12/07 09:02:56;;;;;;;;;;;;;;;;;;5066571;28;19908;-79
2022/12/07 09:05:25;;;;;;;;;;;;;;;;;;5067403;28;20442;-77
2022/12/07 09:07:51;;;;;;;;;;;;;;;;;;5069791;28;20350;-77
2022/12/07 09:10:17;;;;;;;;;;;;;;;;;;5070063;28;19918;-78
2022/12/07 09:12:43;;;;;;;;;;;;;;;;;;5062735;28;19909;-77
2022/12/07 09:15:09;;;;;;;;;;;;;;;;;;5068388;28;19908;-77
2022/12/07 09:17:35;;;;;;;;;;;;;;;;;;5071576;28;19904;-79
2022/12/07 09:20:01;;;;;;;;;;;;;;;;;;5070403;28;19913;-79
2022/12/07 09:22:27;;;;;;;;;;;;;;;;;;5068215;28;20351;-79
2022/12/07 09:24:53;;;;;;;;;;;;;;;;;;5069937;28;19912;-76
2022/12/07 09:27:19;;;;;;;;;;;;;;;;;;5066363;28;19916;-78
2022/12/07 09:29:45;;;;;;;;;;;;;;;;;;5061643;28;19961;-75
2022/12/07 09:32:11;;;;;;;;;;;;;;;;;;5066161;28;19995;-80
2022/12/07 09:34:36;;;;;;;;;;;;;;;;;;5071243;28;19904;-80
2022/12/07 09:37:03;;;;;;;;;;;;;;;;;;5062669;28;19962;-78
2022/12/07 09:39:29;;;;;;;;;;;;;;;;;;5066283;28;20343;-78
2022/12/07 09:41:54;;;;;;;;;;;;;;;;;;5066529;28;19908;-78
2022/12/07 09:44:20;;;;;;;;;;;;;;;;;;5068022;28;20363;-76
2022/12/07 09:46:46;;;;;;;;;;;;;;;;;;5056890;28;20382;-75
2022/12/07 09:49:12;;;;;;;;;;;;;;;;;;5057368;28;20232;-79
2022/12/07 09:51:38;;;;;;;;;;;;;;;;;;5068666;28;19920;-80
2022/12/07 09:54:04;;;;;;;;;;;;;;;;;;5063066;28;19908;-78
2022/12/07 09:56:30;;;;;;;;;;;;;;;;;;5069093;28;19909;-80
2022/12/07 09:58:56;;;;;;;;;;;;;;;;;;5063697;28;20571;-78
2022/12/07 10:01:22;;;;;;;;;;;;;;;;;;5067242;28;19916;-82
2022/12/07 10:03:48;;;;;;;;;;;;;;;;;;5064035;28;19917;-75
2022/12/07 10:06:14;;;;;;;;;;;;;;;;;;5063981;28;20011;-80
2022/12/07 10:08:41;;;;;;;;;;;;;;;;;;5062448;28;20011;-77
2022/12/07 10:11:10;;;;;;;;;;;;;;;;;;5061239;28;19909;-77
2022/12/07 10:13:36;;;;;;;;;;;;;;;;;;5061004;28;20351;-76
2022/12/07 10:16:02;;;;;;;;;;;;;;;;;;5067861;28;19923;-75
2022/12/07 10:18:27;;;;;;;;;;;;;;;;;;5065937;28;19912;-78
2022/12/07 10:20:53;;;;;;;;;;;;;;;;;;5068065;28;19943;-77
2022/12/07 10:23:19;;;;;;;;;;;;;;;;;;5062303;28;20021;-78
2022/12/07 10:25:45;;;;;;;;;;;;;;;;;;5064509;28;19912;-85
2022/12/07 10:28:11;;;;;;;;;;;;;;;;;;5064595;28;19908;-86
2022/12/07 10:30:37;;;;;;;;;;;;;;;;;;5065779;28;19909;-86
2022/12/07 10:33:03;;;;;;;;;;;;;;;;;;5052751;28;19962;-86
2022/12/07 10:35:29;;;;;;;;;;;;;;;;;;5065951;28;19916;-82
2022/12/07 10:37:55;;;;;;;;;;;;;;;;;;5062930;28;19917;-90
2022/12/07 10:40:21;;;;;;;;;;;;;;;;;;5063044;28;19917;-85
2022/12/07 10:42:47;;;;;;;;;;;;;;;;;;5060936;28;20399;-84
2022/12/07 10:45:14;;;;;;;;;;;;;;;;;;5062218;28;20290;-85
2022/12/07 10:47:40;;;;;;;;;;;;;;;;;;5065637;28;19908;-83
2022/12/07 10:50:06;;;;;;;;;;;;;;;;;;5064666;28;19917;-84
2022/12/07 10:52:31;;;;;;;;;;;;;;;;;;5063710;28;20473;-85
2022/12/07 10:54:57;;;;;;;;;;;;;;;;;;5063578;28;20373;-84
2022/12/07 10:57:23;;;;;;;;;;;;;;;;;;5066195;28;19912;-85
2022/12/07 10:59:49;;;;;;;;;;;;;;;;;;5061458;28;19916;-85
2022/12/07 11:02:15;;;;;;;;;;;;;;;;;;5063076;28;20633;-85
2022/12/07 11:04:41;;;;;;;;;;;;;;;;;;5064675;28;19931;-84
2022/12/07 11:07:07;;;;;;;;;;;;;;;;;;5065786;28;20007;-85
2022/12/07 11:09:32;;;;;;;;;;;;;;;;;;5065483;28;20072;-84
2022/12/07 11:11:58;;;;;;;;;;;;;;;;;;5066309;28;20378;-84
2022/12/07 11:14:24;;;;;;;;;;;;;;;;;;5063938;28;20328;-85
2022/12/07 11:16:50;;;;;;;;;;;;;;;;;;5064313;28;19920;-84
2022/12/07 11:19:16;;;;;;;;;;;;;;;;;;5064462;28;19965;-84
2022/12/07 11:21:42;;;;;;;;;;;;;;;;;;5066765;28;20002;-84
2022/12/07 11:24:08;;;;;;;;;;;;;;;;;;5065092;28;19912;-85
2022/12/07 11:26:34;;;;;;;;;;;;;;;;;;5064962;28;19960;-85
2022/12/07 11:29:00;;;;;;;;;;;;;;;;;;5066520;28;20389;-85
2022/12/07 11:31:29;;;;;;;;;;;;;;;;;;5064646;28;19935;-84
2022/12/07 11:33:55;;;;;;;;;;;;;;;;;;5062106;28;20579;-84
2022/12/07 11:36:22;;;;;;;;;;;;;;;;;;5064232;28;19915;-85
2022/12/07 11:38:48;;;;;;;;;;;;;;;;;;5064013;28;19919;-85
2022/12/07 11:41:13;;;;;;;;;;;;;;;;;;5064162;28;19973;-85
2022/12/07 11:43:39;;;;;;;;;;;;;;;;;;5064756;28;19954;-85
2022/12/07 11:46:05;;;;;;;;;;;;;;;;;;5064023;28;19923;-83
2022/12/07 11:48:31;;;;;;;;;;;;;;;;;;5058777;28;19912;-83
2022/12/07 11:50:57;;;;;;;;;;;;;;;;;;5057909;28;19916;-76
2022/12/07 11:53:23;;;;;;;;;;;;;;;;;;5055090;28;19908;-76
2022/12/07 11:55:53;;;;;;;;;;;;;;;;;;5059026;28;19912;-76
2022/12/07 11:58:18;;;;;;;;;;;;;;;;;;5061280;28;19916;-77
2022/12/07 12:00:44;;;;;;;;;;;;;;;;;;5057551;28;19909;-77
2022/12/07 12:03:11;;;;;;;;;;;;;;;;;;5054910;28;19909;-77
2022/12/07 12:05:37;;;;;;;;;;;;;;;;;;5065792;28;19912;-77
2022/12/07 12:08:02;;;;;;;;;;;;;;;;;;5066861;28;19904;-77
2022/12/07 12:10:28;;;;;;;;;;;;;;;;;;5066043;28;21466;-77
2022/12/07 12:12:54;;;;;;;;;;;;;;;;;;5065948;28;20492;-77
2022/12/07 12:15:22;;;;;;;;;;;;;;;;;;5066171;28;19966;-77
2022/12/07 12:17:48;;;;;;;;;;;;;;;;;;5070704;28;19919;-78
2022/12/07 12:20:14;;;;;;;;;;;;;;;;;;5068748;28;19909;-78
2022/12/07 12:22:40;;;;;;;;;;;;;;;;;;5070455;28;19909;-78
2022/12/07 12:25:06;;;;;;;;;;;;;;;;;;5068176;28;19926;-77
2022/12/07 12:27:32;;;;;;;;;;;;;;;;;;5068634;28;19912;-75
2022/12/07 12:29:58;;;;;;;;;;;;;;;;;;5067744;28;20477;-74
2022/12/07 12:32:24;;;;;;;;;;;;;;;;;;5067655;28;19912;-76
2022/12/07 12:34:49;;;;;;;;;;;;;;;;;;5063098;28;20062;-77
2022/12/07 12:37:15;;;;;;;;;;;;;;;;;;5064434;28;19915;-75
2022/12/07 12:39:41;;;;;;;;;;;;;;;;;;5066621;28;20350;-75
2022/12/07 12:42:07;;;;;;;;;;;;;;;;;;5062741;28;20286;-76
2022/12/07 12:44:33;;;;;;;;;;;;;;;;;;5064931;28;19916;-75
2022/12/07 12:46:59;;;;;;;;;;;;;;;;;;5069022;28;20406;-76
2022/12/07 12:49:25;;;;;;;;;;;;;;;;;;5063963;28;20365;-76
2022/12/07 12:51:50;;;;;;;;;;;;;;;;;;5064127;28;20464;-76
2022/12/07 12:54:16;;;;;;;;;;;;;;;;;;5068119;28;19931;-76
2022/12/07 12:56:42;;;;;;;;;;;;;;;;;;5067976;28;19909;-76
2022/12/07 12:59:08;;;;;;;;;;;;;;;;;;5066010;28;19952;-76
2022/12/07 13:01:34;;;;;;;;;;;;;;;;;;5069791;28;19920;-76
2022/12/07 13:04:00;;;;;;;;;;;;;;;;;;5067122;28;20010;-76
2022/12/07 13:06:26;;;;;;;;;;;;;;;;;;5066916;28;19965;-76
2022/12/07 13:08:52;;;;;;;;;;;;;;;;;;5068935;28;20443;-76
2022/12/07 13:11:17;;;;;;;;;;;;;;;;;;5067614;28;19916;-76
2022/12/07 13:13:43;;;;;;;;;;;;;;;;;;5068790;28;19904;-76
2022/12/07 13:16:09;;;;;;;;;;;;;;;;;;5065790;28;19912;-76
2022/12/07 13:18:35;;;;;;;;;;;;;;;;;;5067123;28;19948;-76
2022/12/07 13:21:01;;;;;;;;;;;;;;;;;;5066777;28;19908;-76
2022/12/07 13:23:27;;;;;;;;;;;;;;;;;;5065977;28;19912;-76
2022/12/07 13:25:53;;;;;;;;;;;;;;;;;;5065665;28;20318;-76
2022/12/07 13:28:19;;;;;;;;;;;;;;;;;;5066052;28;19923;-76
2022/12/07 13:30:44;;;;;;;;;;;;;;;;;;5068158;28;20337;-76
2022/12/07 13:33:10;;;;;;;;;;;;;;;;;;5066427;28;19908;-76
2022/12/07 13:35:37;;;;;;;;;;;;;;;;;;5065431;28;20282;-76
2022/12/07 13:38:03;;;;;;;;;;;;;;;;;;5065608;28;19914;-76
2022/12/07 13:40:29;;;;;;;;;;;;;;;;;;5067204;28;19912;-76
2022/12/07 13:42:54;;;;;;;;;;;;;;;;;;5066756;28;19908;-76
2022/12/07 13:45:20;;;;;;;;;;;;;;;;;;5065405;28;20004;-76
2022/12/07 13:47:46;;;;;;;;;;;;;;;;;;5065719;28;19915;-76
2022/12/07 13:50:12;;;;;;;;;;;;;;;;;;5068350;28;20363;-76
2022/12/07 13:52:38;;;;;;;;;;;;;;;;;;5066067;28;20014;-76
2022/12/07 13:55:04;;;;;;;;;;;;;;;;;;5064837;28;19912;-76
2022/12/07 13:57:30;;;;;;;;;;;;;;;;;;5063123;28;19923;-77
2022/12/07 13:59:56;;;;;;;;;;;;;;;;;;5067099;28;20082;-76
2022/12/07 14:02:22;;;;;;;;;;;;;;;;;;5067120;28;20060;-77
2022/12/07 14:04:48;;;;;;;;;;;;;;;;;;5067756;28;19912;-76
2022/12/07 14:07:13;;;;;;;;;;;;;;;;;;5065961;28;19952;-76
2022/12/07 14:09:39;;;;;;;;;;;;;;;;;;5066238;28;20406;-77
2022/12/07 14:12:05;;;;;;;;;;;;;;;;;;5067278;28;20256;-76
2022/12/07 14:14:31;;;;;;;;;;;;;;;;;;5066084;28;20035;-76
2022/12/07 14:16:57;;;;;;;;;;;;;;;;;;5065641;28;19916;-78
2022/12/07 14:19:23;;;;;;;;;;;;;;;;;;5066356;28;20005;-77
2022/12/07 14:21:48;;;;;;;;;;;;;;;;;;5066886;28;19956;-76
2022/12/07 14:24:15;;;;;;;;;;;;;;;;;;5066532;28;20345;-76
2022/12/07 14:26:41;;;;;;;;;;;;;;;;;;5066049;28;20414;-77
2022/12/07 14:29:06;;;;;;;;;;;;;;;;;;5062899;28;19908;-76
2022/12/07 14:31:32;;;;;;;;;;;;;;;;;;5064531;28;19924;-74
2022/12/07 14:33:58;;;;;;;;;;;;;;;;;;5065408;28;19995;-74
2022/12/07 14:36:24;;;;;;;;;;;;;;;;;;5063614;28;19915;-74
2022/12/07 14:38:53;;;;;;;;;;;;;;;;;;5065281;28;19908;-75
2022/12/07 14:44:03;;;;;;;;;;;;;;;;;;5050625;28;19915;-75
2022/12/07 14:46:29;;;;;;;;;;;;;;;;;;5059888;28;19913;-75
2022/12/07 14:48:55;;;;;;;;;;;;;;;;;;5056777;28;19916;-76
2022/12/07 14:51:20;;;;;;;;;;;;;;;;;;5053834;28;19954;-74
2022/12/07 14:53:46;;;;;;;;;;;;;;;;;;5057173;28;20652;-74
2022/12/07 14:56:12;;;;;;;;;;;;;;;;;;5054484;28;20247;-76
2022/12/07 14:58:38;;;;;;;;;;;;;;;;;;5060588;28;19981;-74
2022/12/07 15:01:04;;;;;;;;;;;;;;;;;;5061911;28;20257;-75
2022/12/07 15:03:30;;;;;;;;;;;;;;;;;;5053641;28;19931;-74
2022/12/07 15:05:56;;;;;;;;;;;;;;;;;;5055581;28;19920;-74
2022/12/07 15:08:21;;;;;;;;;;;;;;;;;;5056813;28;19954;-75
2022/12/07 15:10:47;;;;;;;;;;;;;;;;;;5055044;28;19916;-75
2022/12/07 15:15:58;;;;;;;;;;;;;;;;;;5052946;28;20079;-76
2022/12/07 15:18:24;;;;;;;;;;;;;;;;;;5056322;28;20011;-77
2022/12/07 15:20:50;;;;;;;;;;;;;;;;;;5054352;28;20004;-76
2022/12/07 15:23:15;;;;;;;;;;;;;;;;;;5053960;28;19909;-77
2022/12/07 15:25:41;;;;;;;;;;;;;;;;;;5054312;28;19916;-76
2022/12/07 15:28:07;;;;;;;;;;;;;;;;;;5054880;28;19954;-77
2022/12/07 15:30:33;;;;;;;;;;;;;;;;;;5065961;28;20381;-76
2022/12/07 15:32:59;;;;;;;;;;;;;;;;;;5061143;28;20333;-75
2022/12/07 15:35:25;;;;;;;;;;;;;;;;;;5053664;28;19916;-74
2022/12/07 15:37:50;;;;;;;;;;;;;;;;;;5055728;28;19915;-74
2022/12/07 15:40:16;;;;;;;;;;;;;;;;;;5057454;28;19916;-77
2022/12/07 15:42:42;;;;;;;;;;;;;;;;;;5059612;28;19915;-76
2022/12/07 15:45:08;;;;;;;;;;;;;;;;;;5053276;28;19916;-78
2022/12/07 15:47:35;;;;;;;;;;;;;;;;;;5054947;28;19912;-78
2022/12/07 15:50:01;;;;;;;;;;;;;;;;;;5056665;28;20065;-77
2022/12/07 15:52:27;;;;;;;;;;;;;;;;;;5060193;28;20384;-76
2022/12/07 15:54:53;;;;;;;;;;;;;;;;;;5056123;28;19917;-80
2022/12/07 15:57:19;;;;;;;;;;;;;;;;;;5052717;28;20414;-78
2022/12/07 15:59:45;;;;;;;;;;;;;;;;;;5056426;28;19955;-77
2022/12/07 16:02:11;;;;;;;;;;;;;;;;;;5056569;28;20467;-76
2022/12/07 16:04:37;;;;;;;;;;;;;;;;;;5054966;28;20622;-78
2022/12/07 16:07:03;;;;;;;;;;;;;;;;;;5053672;28;20369;-78
2022/12/07 16:09:29;;;;;;;;;;;;;;;;;;5057797;28;19920;-88
2022/12/07 16:11:55;;;;;;;;;;;;;;;;;;5061529;28;19908;-79
2022/12/07 16:14:21;;;;;;;;;;;;;;;;;;5056539;28;19904;-75
2022/12/07 16:16:46;;;;;;;;;;;;;;;;;;5051831;28;19916;-80
2022/12/07 16:19:12;;;;;;;;;;;;;;;;;;5059402;28;19980;-78
2022/12/07 16:21:38;;;;;;;;;;;;;;;;;;5057804;28;20371;-77
2022/12/07 16:24:05;;;;;;;;;;;;;;;;;;5058327;28;19916;-78
2022/12/07 16:26:30;;;;;;;;;;;;;;;;;;5055661;28;19976;-84
2022/12/07 16:28:56;;;;;;;;;;;;;;;;;;5053496;28;19956;-79
2022/12/07 16:31:22;;;;;;;;;;;;;;;;;;5058951;28;20259;-74
2022/12/07 16:33:48;;;;;;;;;;;;;;;;;;5055755;28;19909;-75
2022/12/07 16:36:16;;;;;;;;;;;;;;;;;;5059591;28;19908;-76
2022/12/07 16:38:41;;;;;;;;;;;;;;;;;;5051770;28;19909;-77
2022/12/07 16:41:07;;;;;;;;;;;;;;;;;;5061625;28;19915;-76
2022/12/07 16:43:33;;;;;;;;;;;;;;;;;;5054994;28;19912;-76
2022/12/07 16:45:59;;;;;;;;;;;;;;;;;;5061025;28;19930;-77